EDT,Max TemperatureF,Mean TemperatureF,Min TemperatureF,Max Dew PointF,MeanDew PointF,Min DewpointF,Max Humidity, Mean Humidity, Min Humidity, Max Sea Level PressureIn, Mean Sea Level PressureIn, Min Sea Level PressureIn, Max VisibilityMiles, Mean VisibilityMiles, Min VisibilityMiles, Max Wind SpeedMPH, Mean Wind SpeedMPH, Max Gust SpeedMPH,PrecipitationIn, CloudCover, Events, WindDirDegrees
2013-3-1,29,26,23,26,19,16,85,76,70,30.10,30.04,29.95,10,10,7,9,5,,0.00,8,Snow,9
2013-3-2,25,20,14,17,15,11,88,74,68,30.09,30.07,30.05,10,10,10,8,3,,0.00,7,Snow,330
2013-3-3,30,22,16,15,13,11,89,67,46,30.06,30.03,29.99,10,10,7,10,3,16,0.00,4,Snow,299
2013-3-4,32,20,9,16,13,7,90,71,44,30.13,30.08,30.05,10,10,7,5,1,,0.00,0,,64
2013-3-5,36,28,21,24,18,13,81,68,51,30.08,29.91,29.77,10,10,10,14,7,23,0.00,5,,70
2013-3-6,33,30,26,28,25,22,86,80,73,30.20,30.06,29.84,10,10,10,13,6,21,0.00,8,,4
2013-3-7,37,32,26,28,23,19,90,71,50,30.38,30.30,30.19,10,10,7,9,4,,0.00,7,Snow,307
2013-3-8,40,28,18,22,19,15,91,68,43,30.47,30.42,30.37,10,10,5,7,0,,0.00,0,,140
2013-3-9,43,34,24,33,27,20,83,71,61,30.37,30.19,29.97,10,10,10,14,5,20,0.00,2,Rain,132
2013-3-10,57,48,39,43,38,32,85,64,56,29.97,29.85,29.72,10,10,10,18,8,26,0.00,5,Rain,158
2013-3-11,54,44,35,48,41,31,94,83,55,29.73,29.62,29.48,10,8,2,21,9,29,0.00,8,Rain,193
2013-3-12,34,32,29,31,28,22,91,85,72,29.89,29.82,29.69,10,8,1,17,12,25,0.00,8,Snow,246
2013-3-13,30,26,22,27,19,14,91,74,58,30.22,30.05,29.86,10,8,2,20,10,29,0.00,6,Snow,284
2013-3-14,40,28,17,23,17,13,86,62,44,30.25,30.18,30.08,10,10,10,12,5,17,0.00,1,,260
2013-3-15,42,36,30,35,30,18,94,83,58,30.08,29.91,29.81,10,7,2,12,5,,0.00,7,Rain-Snow,257
2013-3-16,33,30,26,32,26,22,94,87,72,30.04,29.85,29.70,10,8,2,12,4,,0.00,8,Snow,29
2013-3-17,32,28,23,21,18,15,82,68,52,30.23,30.15,30.04,10,10,10,13,6,22,0.00,3,,60
2013-3-18,33,28,23,32,26,16,94,86,71,30.10,29.76,29.54,10,7,1,22,10,28,0.00,6,Rain-Snow,106
2013-3-19,32,26,20,29,17,14,87,75,61,29.95,29.79,29.63,10,7,2,25,17,32,0.00,7,Snow,251
2013-3-20,25,20,13,17,13,10,87,71,58,29.95,29.93,29.90,10,9,3,18,12,25,0.00,7,Snow,267
2013-3-21,30,21,12,23,17,9,89,81,68,29.95,29.90,29.88,10,9,2,17,8,24,0.00,7,Snow,271
2013-3-22,39,31,23,23,20,17,80,68,46,30.02,29.97,29.94,10,10,10,13,7,20,0.00,5,Snow,279
2013-3-23,34,26,18,24,20,16,91,75,56,30.10,30.05,30.01,10,10,10,8,1,,0.00,4,,360
2013-3-24,36,30,23,25,22,20,90,74,58,30.01,29.82,29.63,10,10,10,15,5,24,0.00,4,,53
2013-3-25,36,32,29,29,24,22,85,70,57,29.94,29.70,29.56,10,10,4,14,8,24,0.00,8,Snow,12
2013-3-26,40,35,30,30,27,23,90,77,53,30.14,30.04,29.94,10,10,2,13,5,22,0.00,8,Snow,295
2013-3-27,45,36,26,30,24,20,90,64,36,30.24,30.19,30.14,10,10,10,20,9,28,0.00,3,,288
2013-3-28,51,38,26,28,22,18,87,57,28,30.28,30.25,30.22,10,10,10,12,6,18,0.00,1,,287
2013-3-29,51,36,21,25,18,13,89,55,22,30.28,30.25,30.19,10,10,10,9,2,,0.00,0,,298
2013-3-30,54,37,20,30,22,15,90,55,25,30.22,30.10,29.90,10,10,10,14,3,21,0.00,0,,202
2013-3-31,57,48,37,43,35,28,93,66,38,29.89,29.72,29.64,10,9,2,22,7,29,0.00,6,,251